sensor_id;sensor_type;location;lat;lon;timestamp;P1;durP1;ratioP1;P2;durP2;ratioP2
25758;SDS011;13604;52.496;13.456;2023-09-08T00:01:39;11.00;;;9.05;;
25758;SDS011;13604;52.496;13.456;2023-09-08T00:04:04;12.32;;;8.90;;
25758;SDS011;13604;52.496;13.456;2023-09-08T00:06:30;10.40;;;8.18;;
25758;SDS011;13604;52.496;13.456;2023-09-08T00:08:56;12.30;;;9.20;;
25758;SDS011;13604;52.496;13.456;2023-09-08T00:11:21;12.27;;;9.25;;
25758;SDS011;13604;52.496;13.456;2023-09-08T00:13:46;11.60;;;8.95;;
25758;SDS011;13604;52.496;13.456;2023-09-08T00:16:12;12.77;;;10.18;;
25758;SDS011;13604;52.496;13.456;2023-09-08T00:18:37;12.25;;;9.60;;
25758;SDS011;13604;52.496;13.456;2023-09-08T00:21:02;11.80;;;9.05;;
25758;SDS011;13604;52.496;13.456;2023-09-08T00:23:27;14.65;;;9.30;;
25758;SDS011;13604;52.496;13.456;2023-09-08T00:25:53;13.60;;;9.45;;
25758;SDS011;13604;52.496;13.456;2023-09-08T00:28:18;13.10;;;9.48;;
25758;SDS011;13604;52.496;13.456;2023-09-08T00:30:44;14.10;;;9.05;;
25758;SDS011;13604;52.496;13.456;2023-09-08T00:33:09;16.40;;;9.18;;
25758;SDS011;13604;52.496;13.456;2023-09-08T00:35:37;17.88;;;9.13;;
25758;SDS011;13604;52.496;13.456;2023-09-08T00:38:03;12.48;;;9.25;;
25758;SDS011;13604;52.496;13.456;2023-09-08T00:40:28;11.75;;;9.23;;
25758;SDS011;13604;52.496;13.456;2023-09-08T00:42:54;12.73;;;9.55;;
25758;SDS011;13604;52.496;13.456;2023-09-08T00:45:19;13.05;;;8.82;;
25758;SDS011;13604;52.496;13.456;2023-09-08T00:47:45;12.07;;;9.27;;
25758;SDS011;13604;52.496;13.456;2023-09-08T00:50:10;12.73;;;9.32;;
25758;SDS011;13604;52.496;13.456;2023-09-08T00:52:36;21.70;;;9.98;;
25758;SDS011;13604;52.496;13.456;2023-09-08T00:55:01;14.50;;;9.32;;
25758;SDS011;13604;52.496;13.456;2023-09-08T00:57:27;12.00;;;8.77;;
25758;SDS011;13604;52.496;13.456;2023-09-08T00:59:53;12.45;;;9.02;;
25758;SDS011;13604;52.496;13.456;2023-09-08T01:02:18;11.30;;;9.15;;
25758;SDS011;13604;52.496;13.456;2023-09-08T01:04:45;14.85;;;9.48;;
25758;SDS011;13604;52.496;13.456;2023-09-08T01:07:10;15.23;;;9.88;;
25758;SDS011;13604;52.496;13.456;2023-09-08T01:09:36;14.73;;;10.45;;
25758;SDS011;13604;52.496;13.456;2023-09-08T01:12:02;14.73;;;9.65;;
25758;SDS011;13604;52.496;13.456;2023-09-08T01:14:30;16.17;;;10.27;;
25758;SDS011;13604;52.496;13.456;2023-09-08T01:16:56;15.30;;;10.38;;
25758;SDS011;13604;52.496;13.456;2023-09-08T01:19:21;14.75;;;10.32;;
25758;SDS011;13604;52.496;13.456;2023-09-08T01:27:29;11.68;;;9.43;;
25758;SDS011;13604;52.496;13.456;2023-09-08T01:29:58;11.98;;;9.25;;
25758;SDS011;13604;52.496;13.456;2023-09-08T01:32:25;14.98;;;9.85;;
25758;SDS011;13604;52.496;13.456;2023-09-08T01:34:51;11.75;;;9.00;;
25758;SDS011;13604;52.496;13.456;2023-09-08T01:37:17;13.00;;;9.48;;
25758;SDS011;13604;52.496;13.456;2023-09-08T01:39:42;11.55;;;8.98;;
25758;SDS011;13604;52.496;13.456;2023-09-08T01:42:07;16.08;;;9.77;;
25758;SDS011;13604;52.496;13.456;2023-09-08T01:44:33;13.68;;;10.00;;
25758;SDS011;13604;52.496;13.456;2023-09-08T01:46:58;14.65;;;10.63;;
25758;SDS011;13604;52.496;13.456;2023-09-08T01:49:23;13.23;;;9.80;;
25758;SDS011;13604;52.496;13.456;2023-09-08T01:51:49;13.27;;;10.63;;
25758;SDS011;13604;52.496;13.456;2023-09-08T01:54:15;14.38;;;9.93;;
25758;SDS011;13604;52.496;13.456;2023-09-08T01:56:40;14.50;;;11.20;;
25758;SDS011;13604;52.496;13.456;2023-09-08T01:59:06;15.68;;;10.10;;
25758;SDS011;13604;52.496;13.456;2023-09-08T02:01:31;17.17;;;11.07;;
25758;SDS011;13604;52.496;13.456;2023-09-08T02:03:56;17.17;;;11.45;;
25758;SDS011;13604;52.496;13.456;2023-09-08T02:06:22;14.13;;;10.57;;
25758;SDS011;13604;52.496;13.456;2023-09-08T02:08:47;16.80;;;11.02;;
25758;SDS011;13604;52.496;13.456;2023-09-08T02:11:12;13.68;;;10.38;;
25758;SDS011;13604;52.496;13.456;2023-09-08T02:13:38;14.93;;;10.82;;
25758;SDS011;13604;52.496;13.456;2023-09-08T02:16:04;14.10;;;10.60;;
25758;SDS011;13604;52.496;13.456;2023-09-08T02:18:29;20.05;;;11.73;;
25758;SDS011;13604;52.496;13.456;2023-09-08T02:20:54;16.48;;;11.30;;
25758;SDS011;13604;52.496;13.456;2023-09-08T02:23:20;16.45;;;11.23;;
25758;SDS011;13604;52.496;13.456;2023-09-08T02:25:45;17.38;;;12.25;;
25758;SDS011;13604;52.496;13.456;2023-09-08T02:28:10;15.65;;;11.40;;
25758;SDS011;13604;52.496;13.456;2023-09-08T02:30:36;14.93;;;11.35;;
25758;SDS011;13604;52.496;13.456;2023-09-08T02:33:02;13.15;;;10.95;;
25758;SDS011;13604;52.496;13.456;2023-09-08T02:35:28;18.00;;;10.77;;
25758;SDS011;13604;52.496;13.456;2023-09-08T02:37:53;13.63;;;10.60;;
25758;SDS011;13604;52.496;13.456;2023-09-08T02:40:18;15.77;;;11.50;;
25758;SDS011;13604;52.496;13.456;2023-09-08T02:42:45;16.65;;;12.05;;
25758;SDS011;13604;52.496;13.456;2023-09-08T02:45:11;16.80;;;11.48;;
25758;SDS011;13604;52.496;13.456;2023-09-08T02:47:36;16.08;;;11.25;;
25758;SDS011;13604;52.496;13.456;2023-09-08T02:50:01;14.43;;;11.88;;
25758;SDS011;13604;52.496;13.456;2023-09-08T02:52:28;14.80;;;11.15;;
25758;SDS011;13604;52.496;13.456;2023-09-08T02:54:53;14.95;;;11.85;;
25758;SDS011;13604;52.496;13.456;2023-09-08T02:57:19;14.70;;;11.43;;
25758;SDS011;13604;52.496;13.456;2023-09-08T02:59:48;15.73;;;11.43;;
25758;SDS011;13604;52.496;13.456;2023-09-08T03:02:15;14.40;;;11.75;;
25758;SDS011;13604;52.496;13.456;2023-09-08T03:04:41;18.48;;;12.25;;
25758;SDS011;13604;52.496;13.456;2023-09-08T03:07:06;15.98;;;12.07;;
25758;SDS011;13604;52.496;13.456;2023-09-08T03:09:33;15.95;;;11.93;;
25758;SDS011;13604;52.496;13.456;2023-09-08T03:11:58;19.15;;;11.35;;
25758;SDS011;13604;52.496;13.456;2023-09-08T03:14:24;16.27;;;12.07;;
25758;SDS011;13604;52.496;13.456;2023-09-08T03:16:49;15.27;;;11.32;;
25758;SDS011;13604;52.496;13.456;2023-09-08T03:19:14;18.05;;;12.55;;
25758;SDS011;13604;52.496;13.456;2023-09-08T03:21:40;17.73;;;12.30;;
25758;SDS011;13604;52.496;13.456;2023-09-08T03:24:05;18.20;;;12.57;;
25758;SDS011;13604;52.496;13.456;2023-09-08T03:26:30;20.15;;;13.30;;
25758;SDS011;13604;52.496;13.456;2023-09-08T03:28:56;16.65;;;13.38;;
25758;SDS011;13604;52.496;13.456;2023-09-08T03:31:21;17.20;;;13.57;;
25758;SDS011;13604;52.496;13.456;2023-09-08T03:33:46;16.17;;;12.70;;
25758;SDS011;13604;52.496;13.456;2023-09-08T03:36:11;19.90;;;13.25;;
25758;SDS011;13604;52.496;13.456;2023-09-08T03:38:37;15.10;;;12.25;;
25758;SDS011;13604;52.496;13.456;2023-09-08T03:41:02;16.40;;;12.68;;
25758;SDS011;13604;52.496;13.456;2023-09-08T03:43:28;16.90;;;12.10;;
25758;SDS011;13604;52.496;13.456;2023-09-08T03:45:53;18.13;;;13.40;;
25758;SDS011;13604;52.496;13.456;2023-09-08T03:48:19;20.25;;;13.43;;
25758;SDS011;13604;52.496;13.456;2023-09-08T03:50:44;17.50;;;13.15;;
25758;SDS011;13604;52.496;13.456;2023-09-08T03:53:10;19.17;;;13.20;;
25758;SDS011;13604;52.496;13.456;2023-09-08T03:55:36;17.95;;;12.98;;
25758;SDS011;13604;52.496;13.456;2023-09-08T03:58:02;19.55;;;13.23;;
25758;SDS011;13604;52.496;13.456;2023-09-08T04:00:27;19.90;;;13.93;;
25758;SDS011;13604;52.496;13.456;2023-09-08T04:02:52;18.17;;;14.48;;
25758;SDS011;13604;52.496;13.456;2023-09-08T04:05:17;18.88;;;13.27;;
25758;SDS011;13604;52.496;13.456;2023-09-08T04:07:46;19.33;;;14.60;;
25758;SDS011;13604;52.496;13.456;2023-09-08T04:10:11;17.00;;;13.45;;
25758;SDS011;13604;52.496;13.456;2023-09-08T04:12:38;16.17;;;14.20;;
25758;SDS011;13604;52.496;13.456;2023-09-08T04:15:04;17.90;;;13.77;;
25758;SDS011;13604;52.496;13.456;2023-09-08T04:17:29;17.90;;;13.48;;
25758;SDS011;13604;52.496;13.456;2023-09-08T04:19:54;16.13;;;13.38;;
25758;SDS011;13604;52.496;13.456;2023-09-08T04:22:20;20.77;;;14.05;;
25758;SDS011;13604;52.496;13.456;2023-09-08T04:24:45;16.65;;;13.55;;
25758;SDS011;13604;52.496;13.456;2023-09-08T04:27:10;19.58;;;14.18;;
25758;SDS011;13604;52.496;13.456;2023-09-08T04:29:36;17.08;;;14.00;;
25758;SDS011;13604;52.496;13.456;2023-09-08T04:32:01;22.80;;;14.43;;
25758;SDS011;13604;52.496;13.456;2023-09-08T04:34:33;18.88;;;14.00;;
25758;SDS011;13604;52.496;13.456;2023-09-08T04:36:59;17.13;;;14.15;;
25758;SDS011;13604;52.496;13.456;2023-09-08T04:39:25;20.27;;;14.68;;
25758;SDS011;13604;52.496;13.456;2023-09-08T04:41:50;16.88;;;14.00;;
25758;SDS011;13604;52.496;13.456;2023-09-08T04:44:15;16.50;;;13.50;;
25758;SDS011;13604;52.496;13.456;2023-09-08T04:46:41;24.83;;;17.13;;
25758;SDS011;13604;52.496;13.456;2023-09-08T04:49:06;18.55;;;13.73;;
25758;SDS011;13604;52.496;13.456;2023-09-08T04:51:31;22.70;;;16.13;;
25758;SDS011;13604;52.496;13.456;2023-09-08T04:53:56;18.58;;;14.43;;
25758;SDS011;13604;52.496;13.456;2023-09-08T04:56:22;17.58;;;13.82;;
25758;SDS011;13604;52.496;13.456;2023-09-08T04:58:47;24.27;;;13.93;;
25758;SDS011;13604;52.496;13.456;2023-09-08T05:01:12;25.67;;;15.40;;
25758;SDS011;13604;52.496;13.456;2023-09-08T05:03:38;17.50;;;13.50;;
25758;SDS011;13604;52.496;13.456;2023-09-08T05:06:03;21.40;;;14.52;;
25758;SDS011;13604;52.496;13.456;2023-09-08T05:08:28;22.25;;;14.70;;
25758;SDS011;13604;52.496;13.456;2023-09-08T05:10:53;21.15;;;14.30;;
25758;SDS011;13604;52.496;13.456;2023-09-08T05:13:19;22.42;;;14.13;;
25758;SDS011;13604;52.496;13.456;2023-09-08T05:15:45;25.20;;;14.55;;
25758;SDS011;13604;52.496;13.456;2023-09-08T05:18:13;23.90;;;13.40;;
25758;SDS011;13604;52.496;13.456;2023-09-08T05:20:38;19.60;;;13.98;;
25758;SDS011;13604;52.496;13.456;2023-09-08T05:23:04;20.88;;;14.57;;
25758;SDS011;13604;52.496;13.456;2023-09-08T05:25:29;21.23;;;13.27;;
25758;SDS011;13604;52.496;13.456;2023-09-08T05:27:54;21.55;;;14.38;;
25758;SDS011;13604;52.496;13.456;2023-09-08T05:30:20;18.35;;;13.55;;
25758;SDS011;13604;52.496;13.456;2023-09-08T05:32:45;17.60;;;12.80;;
25758;SDS011;13604;52.496;13.456;2023-09-08T05:35:10;24.13;;;13.80;;
25758;SDS011;13604;52.496;13.456;2023-09-08T05:37:35;22.75;;;13.48;;
25758;SDS011;13604;52.496;13.456;2023-09-08T05:40:01;19.20;;;14.30;;
25758;SDS011;13604;52.496;13.456;2023-09-08T05:42:26;18.55;;;13.63;;
25758;SDS011;13604;52.496;13.456;2023-09-08T05:44:51;20.00;;;13.02;;
25758;SDS011;13604;52.496;13.456;2023-09-08T05:47:19;16.88;;;12.25;;
25758;SDS011;13604;52.496;13.456;2023-09-08T05:49:44;16.17;;;12.55;;
25758;SDS011;13604;52.496;13.456;2023-09-08T05:52:10;18.35;;;13.15;;
25758;SDS011;13604;52.496;13.456;2023-09-08T05:54:35;16.10;;;11.63;;
25758;SDS011;13604;52.496;13.456;2023-09-08T05:57:00;18.25;;;13.32;;
25758;SDS011;13604;52.496;13.456;2023-09-08T05:59:26;18.83;;;12.70;;
25758;SDS011;13604;52.496;13.456;2023-09-08T06:01:51;20.10;;;13.05;;
25758;SDS011;13604;52.496;13.456;2023-09-08T06:04:16;20.00;;;13.32;;
25758;SDS011;13604;52.496;13.456;2023-09-08T06:06:42;21.55;;;12.65;;
25758;SDS011;13604;52.496;13.456;2023-09-08T06:09:07;19.15;;;12.90;;
25758;SDS011;13604;52.496;13.456;2023-09-08T06:11:34;19.67;;;12.77;;
25758;SDS011;13604;52.496;13.456;2023-09-08T06:13:59;18.42;;;12.25;;
25758;SDS011;13604;52.496;13.456;2023-09-08T06:16:25;20.33;;;12.70;;
25758;SDS011;13604;52.496;13.456;2023-09-08T06:18:51;19.98;;;12.23;;
25758;SDS011;13604;52.496;13.456;2023-09-08T06:21:16;24.30;;;11.63;;
25758;SDS011;13604;52.496;13.456;2023-09-08T06:23:41;18.85;;;12.27;;
25758;SDS011;13604;52.496;13.456;2023-09-08T06:26:07;22.75;;;12.23;;
25758;SDS011;13604;52.496;13.456;2023-09-08T06:28:32;24.02;;;12.82;;
25758;SDS011;13604;52.496;13.456;2023-09-08T06:30:57;19.17;;;12.27;;
25758;SDS011;13604;52.496;13.456;2023-09-08T06:33:23;16.80;;;11.32;;
25758;SDS011;13604;52.496;13.456;2023-09-08T06:35:48;16.58;;;11.68;;
25758;SDS011;13604;52.496;13.456;2023-09-08T06:38:14;17.75;;;12.35;;
25758;SDS011;13604;52.496;13.456;2023-09-08T06:40:39;17.25;;;11.15;;
25758;SDS011;13604;52.496;13.456;2023-09-08T06:43:05;16.52;;;11.18;;
25758;SDS011;13604;52.496;13.456;2023-09-08T06:45:30;17.38;;;11.10;;
25758;SDS011;13604;52.496;13.456;2023-09-08T06:47:55;17.83;;;10.60;;
25758;SDS011;13604;52.496;13.456;2023-09-08T06:50:21;16.98;;;11.00;;
25758;SDS011;13604;52.496;13.456;2023-09-08T06:52:47;12.65;;;10.20;;
25758;SDS011;13604;52.496;13.456;2023-09-08T06:55:13;14.60;;;10.93;;
25758;SDS011;13604;52.496;13.456;2023-09-08T06:57:41;18.17;;;10.48;;
25758;SDS011;13604;52.496;13.456;2023-09-08T07:00:06;11.65;;;9.90;;
25758;SDS011;13604;52.496;13.456;2023-09-08T07:02:32;12.00;;;10.13;;
25758;SDS011;13604;52.496;13.456;2023-09-08T07:04:57;14.75;;;9.93;;
25758;SDS011;13604;52.496;13.456;2023-09-08T07:07:23;17.13;;;11.05;;
25758;SDS011;13604;52.496;13.456;2023-09-08T07:09:48;13.07;;;9.60;;
25758;SDS011;13604;52.496;13.456;2023-09-08T07:12:13;20.30;;;10.50;;
25758;SDS011;13604;52.496;13.456;2023-09-08T07:14:39;18.15;;;9.00;;
25758;SDS011;13604;52.496;13.456;2023-09-08T07:17:04;14.43;;;9.57;;
25758;SDS011;13604;52.496;13.456;2023-09-08T07:19:29;18.38;;;9.98;;
25758;SDS011;13604;52.496;13.456;2023-09-08T07:21:55;12.65;;;9.35;;
25758;SDS011;13604;52.496;13.456;2023-09-08T07:24:20;15.77;;;9.57;;
25758;SDS011;13604;52.496;13.456;2023-09-08T07:26:46;11.43;;;8.70;;
25758;SDS011;13604;52.496;13.456;2023-09-08T07:29:11;16.08;;;9.40;;
25758;SDS011;13604;52.496;13.456;2023-09-08T07:31:37;11.77;;;8.63;;
25758;SDS011;13604;52.496;13.456;2023-09-08T07:34:03;10.10;;;7.93;;
25758;SDS011;13604;52.496;13.456;2023-09-08T07:36:28;10.73;;;7.53;;
25758;SDS011;13604;52.496;13.456;2023-09-08T07:38:53;13.03;;;7.87;;
25758;SDS011;13604;52.496;13.456;2023-09-08T07:41:19;13.37;;;8.17;;
25758;SDS011;13604;52.496;13.456;2023-09-08T07:43:44;11.45;;;7.80;;
25758;SDS011;13604;52.496;13.456;2023-09-08T07:46:10;9.85;;;7.80;;
25758;SDS011;13604;52.496;13.456;2023-09-08T07:48:35;11.98;;;7.55;;
25758;SDS011;13604;52.496;13.456;2023-09-08T07:51:01;12.00;;;7.88;;
25758;SDS011;13604;52.496;13.456;2023-09-08T07:53:26;11.00;;;7.25;;
25758;SDS011;13604;52.496;13.456;2023-09-08T07:55:52;9.75;;;7.28;;
25758;SDS011;13604;52.496;13.456;2023-09-08T07:58:17;8.57;;;6.88;;
25758;SDS011;13604;52.496;13.456;2023-09-08T08:00:42;8.50;;;6.97;;
25758;SDS011;13604;52.496;13.456;2023-09-08T08:03:08;17.38;;;7.28;;
25758;SDS011;13604;52.496;13.456;2023-09-08T08:05:34;10.18;;;6.88;;
25758;SDS011;13604;52.496;13.456;2023-09-08T08:07:59;12.18;;;7.95;;
25758;SDS011;13604;52.496;13.456;2023-09-08T08:10:24;10.60;;;7.00;;
25758;SDS011;13604;52.496;13.456;2023-09-08T08:12:50;8.55;;;6.60;;
25758;SDS011;13604;52.496;13.456;2023-09-08T08:15:15;10.70;;;7.55;;
25758;SDS011;13604;52.496;13.456;2023-09-08T08:17:40;11.98;;;6.82;;
25758;SDS011;13604;52.496;13.456;2023-09-08T08:20:06;8.18;;;6.90;;
25758;SDS011;13604;52.496;13.456;2023-09-08T08:22:35;8.70;;;6.15;;
25758;SDS011;13604;52.496;13.456;2023-09-08T08:25:01;10.05;;;7.35;;
25758;SDS011;13604;52.496;13.456;2023-09-08T08:27:28;14.70;;;7.45;;
25758;SDS011;13604;52.496;13.456;2023-09-08T08:29:53;7.53;;;6.43;;
25758;SDS011;13604;52.496;13.456;2023-09-08T08:32:19;7.88;;;6.40;;
25758;SDS011;13604;52.496;13.456;2023-09-08T08:34:44;9.07;;;6.75;;
25758;SDS011;13604;52.496;13.456;2023-09-08T08:37:10;12.35;;;6.97;;
25758;SDS011;13604;52.496;13.456;2023-09-08T08:39:35;8.57;;;6.80;;
25758;SDS011;13604;52.496;13.456;2023-09-08T08:42:07;7.32;;;6.30;;
25758;SDS011;13604;52.496;13.456;2023-09-08T08:44:34;12.23;;;6.80;;
25758;SDS011;13604;52.496;13.456;2023-09-08T08:47:00;12.98;;;6.47;;
25758;SDS011;13604;52.496;13.456;2023-09-08T08:49:27;8.38;;;6.00;;
25758;SDS011;13604;52.496;13.456;2023-09-08T08:51:55;8.00;;;5.78;;
25758;SDS011;13604;52.496;13.456;2023-09-08T08:54:23;9.40;;;6.47;;
25758;SDS011;13604;52.496;13.456;2023-09-08T08:56:49;12.68;;;6.40;;
25758;SDS011;13604;52.496;13.456;2023-09-08T08:59:15;13.07;;;6.45;;
25758;SDS011;13604;52.496;13.456;2023-09-08T09:02:34;9.32;;;6.28;;
25758;SDS011;13604;52.496;13.456;2023-09-08T09:05:01;12.40;;;7.00;;
25758;SDS011;13604;52.496;13.456;2023-09-08T09:07:27;8.65;;;6.47;;
25758;SDS011;13604;52.496;13.456;2023-09-08T09:09:52;8.00;;;6.10;;
25758;SDS011;13604;52.496;13.456;2023-09-08T09:12:19;8.02;;;6.32;;
25758;SDS011;13604;52.496;13.456;2023-09-08T09:14:45;10.50;;;5.80;;
25758;SDS011;13604;52.496;13.456;2023-09-08T09:17:13;12.40;;;5.70;;
25758;SDS011;13604;52.496;13.456;2023-09-08T09:19:39;7.75;;;6.00;;
25758;SDS011;13604;52.496;13.456;2023-09-08T09:22:04;7.43;;;4.97;;
25758;SDS011;13604;52.496;13.456;2023-09-08T09:24:31;7.83;;;5.30;;
25758;SDS011;13604;52.496;13.456;2023-09-08T09:27:06;8.25;;;5.40;;
25758;SDS011;13604;52.496;13.456;2023-09-08T09:29:32;8.93;;;5.40;;
25758;SDS011;13604;52.496;13.456;2023-09-08T09:32:07;9.90;;;5.35;;
25758;SDS011;13604;52.496;13.456;2023-09-08T09:34:35;8.57;;;5.20;;
25758;SDS011;13604;52.496;13.456;2023-09-08T09:37:01;7.00;;;5.38;;
25758;SDS011;13604;52.496;13.456;2023-09-08T09:39:26;10.77;;;6.00;;
25758;SDS011;13604;52.496;13.456;2023-09-08T09:41:55;7.88;;;6.07;;
25758;SDS011;13604;52.496;13.456;2023-09-08T09:44:22;8.10;;;5.50;;
25758;SDS011;13604;52.496;13.456;2023-09-08T09:46:48;7.60;;;5.00;;
25758;SDS011;13604;52.496;13.456;2023-09-08T09:49:16;5.78;;;4.88;;
25758;SDS011;13604;52.496;13.456;2023-09-08T09:51:52;7.03;;;5.82;;
25758;SDS011;13604;52.496;13.456;2023-09-08T09:54:18;8.85;;;5.45;;
25758;SDS011;13604;52.496;13.456;2023-09-08T09:56:44;7.50;;;5.28;;
25758;SDS011;13604;52.496;13.456;2023-09-08T09:59:12;7.65;;;5.03;;
25758;SDS011;13604;52.496;13.456;2023-09-08T10:01:38;10.25;;;5.53;;
25758;SDS011;13604;52.496;13.456;2023-09-08T10:04:05;6.80;;;4.50;;
25758;SDS011;13604;52.496;13.456;2023-09-08T10:06:31;5.85;;;4.55;;
25758;SDS011;13604;52.496;13.456;2023-09-08T10:09:02;6.25;;;4.53;;
25758;SDS011;13604;52.496;13.456;2023-09-08T10:11:38;9.80;;;5.07;;
25758;SDS011;13604;52.496;13.456;2023-09-08T10:14:15;8.30;;;4.30;;
25758;SDS011;13604;52.496;13.456;2023-09-08T10:16:40;5.70;;;4.60;;
25758;SDS011;13604;52.496;13.456;2023-09-08T10:19:10;5.15;;;4.00;;
25758;SDS011;13604;52.496;13.456;2023-09-08T10:21:45;5.65;;;4.43;;
25758;SDS011;13604;52.496;13.456;2023-09-08T10:26:50;6.53;;;4.50;;
25758;SDS011;13604;52.496;13.456;2023-09-08T10:29:20;5.85;;;4.50;;
25758;SDS011;13604;52.496;13.456;2023-09-08T10:31:47;5.50;;;4.60;;
25758;SDS011;13604;52.496;13.456;2023-09-08T10:34:13;5.18;;;4.53;;
25758;SDS011;13604;52.496;13.456;2023-09-08T10:36:39;12.52;;;4.65;;
25758;SDS011;13604;52.496;13.456;2023-09-08T10:39:27;6.50;;;4.38;;
25758;SDS011;13604;52.496;13.456;2023-09-08T10:44:44;6.03;;;4.75;;
25758;SDS011;13604;52.496;13.456;2023-09-08T10:47:24;5.60;;;4.40;;
25758;SDS011;13604;52.496;13.456;2023-09-08T10:49:51;8.35;;;4.80;;
25758;SDS011;13604;52.496;13.456;2023-09-08T10:52:22;5.85;;;3.97;;
25758;SDS011;13604;52.496;13.456;2023-09-08T10:54:50;4.18;;;3.78;;
25758;SDS011;13604;52.496;13.456;2023-09-08T10:57:18;6.40;;;4.20;;
25758;SDS011;13604;52.496;13.456;2023-09-08T10:59:58;4.70;;;4.22;;
25758;SDS011;13604;52.496;13.456;2023-09-08T11:02:39;6.70;;;4.53;;
25758;SDS011;13604;52.496;13.456;2023-09-08T11:05:12;8.63;;;4.40;;
25758;SDS011;13604;52.496;13.456;2023-09-08T11:07:40;5.80;;;4.03;;
25758;SDS011;13604;52.496;13.456;2023-09-08T11:10:06;7.65;;;4.45;;
25758;SDS011;13604;52.496;13.456;2023-09-08T11:12:32;6.25;;;4.28;;
25758;SDS011;13604;52.496;13.456;2023-09-08T11:14:58;5.10;;;3.80;;
25758;SDS011;13604;52.496;13.456;2023-09-08T11:17:30;7.35;;;4.43;;
25758;SDS011;13604;52.496;13.456;2023-09-08T11:19:56;6.80;;;4.00;;
25758;SDS011;13604;52.496;13.456;2023-09-08T11:22:22;4.13;;;3.70;;
25758;SDS011;13604;52.496;13.456;2023-09-08T11:24:49;7.60;;;4.05;;
25758;SDS011;13604;52.496;13.456;2023-09-08T11:27:15;4.65;;;4.00;;
25758;SDS011;13604;52.496;13.456;2023-09-08T11:29:40;5.00;;;3.90;;
25758;SDS011;13604;52.496;13.456;2023-09-08T11:32:06;4.78;;;4.28;;
25758;SDS011;13604;52.496;13.456;2023-09-08T11:34:33;4.05;;;3.53;;
25758;SDS011;13604;52.496;13.456;2023-09-08T11:36:59;4.60;;;3.88;;
25758;SDS011;13604;52.496;13.456;2023-09-08T11:39:24;6.17;;;4.00;;
25758;SDS011;13604;52.496;13.456;2023-09-08T11:41:50;6.88;;;4.57;;
25758;SDS011;13604;52.496;13.456;2023-09-08T11:44:17;5.40;;;4.28;;
25758;SDS011;13604;52.496;13.456;2023-09-08T11:46:43;7.22;;;3.63;;
25758;SDS011;13604;52.496;13.456;2023-09-08T11:49:08;4.43;;;3.95;;
25758;SDS011;13604;52.496;13.456;2023-09-08T11:51:34;3.70;;;3.40;;
25758;SDS011;13604;52.496;13.456;2023-09-08T11:53:59;4.63;;;3.80;;
25758;SDS011;13604;52.496;13.456;2023-09-08T11:56:25;4.95;;;3.97;;
25758;SDS011;13604;52.496;13.456;2023-09-08T11:58:50;4.30;;;3.90;;
25758;SDS011;13604;52.496;13.456;2023-09-08T12:01:17;5.93;;;4.25;;
25758;SDS011;13604;52.496;13.456;2023-09-08T12:03:55;3.90;;;3.45;;
25758;SDS011;13604;52.496;13.456;2023-09-08T12:06:26;6.25;;;3.95;;
25758;SDS011;13604;52.496;13.456;2023-09-08T12:08:53;5.75;;;3.80;;
25758;SDS011;13604;52.496;13.456;2023-09-08T12:11:18;8.45;;;5.00;;
25758;SDS011;13604;52.496;13.456;2023-09-08T12:13:44;4.47;;;3.88;;
25758;SDS011;13604;52.496;13.456;2023-09-08T12:16:19;4.00;;;3.67;;
25758;SDS011;13604;52.496;13.456;2023-09-08T12:18:45;4.60;;;3.83;;
25758;SDS011;13604;52.496;13.456;2023-09-08T12:21:10;6.67;;;4.03;;
25758;SDS011;13604;52.496;13.456;2023-09-08T12:23:46;6.72;;;4.28;;
25758;SDS011;13604;52.496;13.456;2023-09-08T12:26:14;4.43;;;3.97;;
25758;SDS011;13604;52.496;13.456;2023-09-08T12:28:39;5.20;;;3.70;;
25758;SDS011;13604;52.496;13.456;2023-09-08T12:31:07;4.68;;;4.03;;
25758;SDS011;13604;52.496;13.456;2023-09-08T12:33:33;5.53;;;3.63;;
25758;SDS011;13604;52.496;13.456;2023-09-08T12:35:59;4.47;;;4.07;;
25758;SDS011;13604;52.496;13.456;2023-09-08T12:38:30;4.37;;;3.97;;
25758;SDS011;13604;52.496;13.456;2023-09-08T12:40:56;4.70;;;3.70;;
25758;SDS011;13604;52.496;13.456;2023-09-08T12:43:22;4.63;;;4.10;;
25758;SDS011;13604;52.496;13.456;2023-09-08T12:45:47;6.57;;;3.87;;
25758;SDS011;13604;52.496;13.456;2023-09-08T12:48:12;6.33;;;4.00;;
25758;SDS011;13604;52.496;13.456;2023-09-08T12:50:38;4.40;;;4.00;;
25758;SDS011;13604;52.496;13.456;2023-09-08T12:53:03;4.20;;;3.80;;
25758;SDS011;13604;52.496;13.456;2023-09-08T12:55:28;5.50;;;4.03;;
25758;SDS011;13604;52.496;13.456;2023-09-08T12:57:54;5.83;;;3.63;;
25758;SDS011;13604;52.496;13.456;2023-09-08T13:02:34;7.35;;;4.22;;
25758;SDS011;13604;52.496;13.456;2023-09-08T13:05:00;8.63;;;4.50;;
25758;SDS011;13604;52.496;13.456;2023-09-08T13:07:26;5.45;;;4.25;;
25758;SDS011;13604;52.496;13.456;2023-09-08T13:09:51;6.95;;;4.25;;
25758;SDS011;13604;52.496;13.456;2023-09-08T13:12:17;7.97;;;4.20;;
25758;SDS011;13604;52.496;13.456;2023-09-08T13:14:42;4.90;;;3.73;;
25758;SDS011;13604;52.496;13.456;2023-09-08T13:17:08;4.90;;;3.10;;
25758;SDS011;13604;52.496;13.456;2023-09-08T13:19:35;5.80;;;4.03;;
25758;SDS011;13604;52.496;13.456;2023-09-08T13:22:00;5.50;;;4.10;;
25758;SDS011;13604;52.496;13.456;2023-09-08T13:24:25;7.33;;;3.90;;
25758;SDS011;13604;52.496;13.456;2023-09-08T13:26:51;4.30;;;3.90;;
25758;SDS011;13604;52.496;13.456;2023-09-08T13:29:16;6.13;;;4.40;;
25758;SDS011;13604;52.496;13.456;2023-09-08T13:31:41;8.45;;;4.35;;
25758;SDS011;13604;52.496;13.456;2023-09-08T13:34:07;3.77;;;3.47;;
25758;SDS011;13604;52.496;13.456;2023-09-08T13:36:32;5.23;;;3.73;;
25758;SDS011;13604;52.496;13.456;2023-09-08T13:38:57;3.90;;;3.60;;
25758;SDS011;13604;52.496;13.456;2023-09-08T13:41:23;5.70;;;3.45;;
25758;SDS011;13604;52.496;13.456;2023-09-08T13:43:48;6.68;;;3.63;;
25758;SDS011;13604;52.496;13.456;2023-09-08T13:46:14;8.07;;;4.10;;
25758;SDS011;13604;52.496;13.456;2023-09-08T13:48:39;5.77;;;3.60;;
25758;SDS011;13604;52.496;13.456;2023-09-08T13:51:04;7.43;;;4.17;;
25758;SDS011;13604;52.496;13.456;2023-09-08T13:53:30;4.75;;;4.20;;
25758;SDS011;13604;52.496;13.456;2023-09-08T13:56:01;7.85;;;4.00;;
25758;SDS011;13604;52.496;13.456;2023-09-08T13:58:27;4.60;;;4.00;;
25758;SDS011;13604;52.496;13.456;2023-09-08T14:02:34;4.03;;;3.60;;
25758;SDS011;13604;52.496;13.456;2023-09-08T14:04:59;4.97;;;4.20;;
25758;SDS011;13604;52.496;13.456;2023-09-08T14:07:25;5.87;;;3.77;;
25758;SDS011;13604;52.496;13.456;2023-09-08T14:09:50;4.80;;;4.10;;
25758;SDS011;13604;52.496;13.456;2023-09-08T14:12:15;3.97;;;3.60;;
25758;SDS011;13604;52.496;13.456;2023-09-08T14:14:41;5.05;;;3.78;;
25758;SDS011;13604;52.496;13.456;2023-09-08T14:17:06;5.83;;;3.73;;
25758;SDS011;13604;52.496;13.456;2023-09-08T14:19:31;6.70;;;3.90;;
25758;SDS011;13604;52.496;13.456;2023-09-08T14:21:57;8.17;;;3.87;;
25758;SDS011;13604;52.496;13.456;2023-09-08T14:24:23;4.50;;;3.80;;
25758;SDS011;13604;52.496;13.456;2023-09-08T14:26:52;4.18;;;3.60;;
25758;SDS011;13604;52.496;13.456;2023-09-08T14:29:17;5.57;;;3.50;;
25758;SDS011;13604;52.496;13.456;2023-09-08T14:31:42;3.70;;;3.40;;